Time;durP1;ratioP1;P1;durP2;ratioP2;P2;SDS_P1;SDS_P2;PMS_P1;PMS_P2;Temp;Humidity;BMP_temperature;BMP_pressure;BME280_temperature;BME280_humidity;BME280_pressure;Samples;Min_cycle;Max_cycle;Signal;HPM_P1;HPM_P2
2021/08/13 00:04:04;;;;;;;4.22;2.92;;;;;;;21.57;67.63;95263.09;10403380;28;20050;-73
2021/08/13 00:09:04;;;;;;;5.30;3.05;;;;;;;21.62;67.40;95271.09;10402582;28;20391;-73
2021/08/13 00:14:06;;;;;;;4.57;2.70;;;;;;;21.54;66.50;95270.00;10403468;28;20052;-73
2021/08/13 00:19:07;;;;;;;8.15;3.45;;;;;;;21.40;66.03;95263.94;10402850;28;20485;-73
2021/08/13 00:24:08;;;;;;;5.47;3.08;;;;;;;21.46;65.90;95251.69;10403593;28;20092;-73
2021/08/13 00:29:08;;;;;;;5.50;3.47;;;;;;;21.46;65.75;95257.97;10403519;28;20148;-73
2021/08/13 00:34:09;;;;;;;7.33;2.87;;;;;;;21.48;66.23;95258.44;10402750;28;20419;-72
2021/08/13 00:39:09;;;;;;;7.47;3.33;;;;;;;21.48;65.32;95254.91;10402837;28;20102;-73
2021/08/13 00:44:10;;;;;;;5.20;3.17;;;;;;;21.50;63.65;95258.91;10403062;28;20029;-73
2021/08/13 00:49:10;;;;;;;4.82;3.05;;;;;;;21.44;63.49;95267.63;10404154;28;20030;-73
2021/08/13 00:54:11;;;;;;;3.77;2.53;;;;;;;21.46;62.55;95266.19;10409987;28;20175;-73
2021/08/13 00:59:11;;;;;;;7.93;3.30;;;;;;;21.42;62.90;95276.16;10410016;28;20049;-73
2021/08/13 01:04:12;;;;;;;10.68;4.32;;;;;;;21.40;62.95;95280.38;10409212;28;20038;-73
2021/08/13 01:09:12;;;;;;;7.10;3.20;;;;;;;21.41;63.73;95284.72;10408173;28;20021;-73
2021/08/13 01:14:24;;;;;;;9.82;3.63;;;;;;;21.31;63.76;95281.19;10409744;28;20022;-73
2021/08/13 01:19:30;;;;;;;4.78;3.25;;;;;;;21.32;64.32;95279.25;10409464;28;20504;-73
2021/08/13 01:24:33;;;;;;;7.50;3.45;;;;;;;21.29;65.47;95279.91;10409165;28;20034;-73
2021/08/13 01:29:45;;;;;;;6.72;3.25;;;;;;;21.26;65.80;95275.91;10409667;28;20083;-73
2021/08/13 01:34:50;;;;;;;6.63;3.60;;;;;;;20.86;75.40;95287.16;10408493;28;20485;-73
2021/08/13 01:39:52;;;;;;;6.85;3.85;;;;;;;20.42;82.70;95289.13;10408630;28;20117;-73
2021/08/13 01:44:55;;;;;;;6.40;3.72;;;;;;;20.01;90.13;95293.13;10408522;28;20029;-73
2021/08/13 01:49:56;;;;;;;6.85;3.83;;;;;;;19.77;93.76;95302.50;10408193;28;20032;-73
2021/08/13 01:54:57;;;;;;;7.70;4.25;;;;;;;19.49;98.52;95299.25;10406851;28;20115;-73
2021/08/13 01:59:58;;;;;;;10.55;6.88;;;;;;;19.22;100.00;95295.63;10405840;28;20083;-73
2021/08/13 02:04:59;;;;;;;6.95;4.40;;;;;;;18.81;100.00;95293.94;10407414;28;20021;-73
2021/08/13 02:10:00;;;;;;;8.82;4.10;;;;;;;18.55;100.00;95295.41;10405663;28;20048;-73
2021/08/13 02:15:01;;;;;;;9.82;4.35;;;;;;;18.58;100.00;95292.03;10406274;28;20026;-73
2021/08/13 02:20:15;;;;;;;11.13;4.13;;;;;;;18.34;100.00;95303.25;10405784;28;20112;-73
2021/08/13 02:25:15;;;;;;;8.13;4.40;;;;;;;18.12;100.00;95295.09;10406803;28;20065;-72
2021/08/13 02:30:15;;;;;;;13.67;4.17;;;;;;;18.08;100.00;95297.59;10406775;28;20568;-72
2021/08/13 02:35:16;;;;;;;9.70;4.47;;;;;;;18.09;100.00;95308.16;10406011;28;20635;-72
2021/08/13 02:40:24;;;;;;;7.38;3.80;;;;;;;18.19;100.00;95290.81;10406271;28;20051;-73
2021/08/13 02:45:26;;;;;;;6.78;4.03;;;;;;;18.28;100.00;95297.13;10405603;28;20029;-73
2021/08/13 02:50:28;;;;;;;6.00;3.70;;;;;;;18.21;100.00;95298.66;10405950;28;20033;-72
2021/08/13 02:55:58;;;;;;;12.73;4.10;;;;;;;18.37;100.00;95307.28;10405427;28;20069;-73
2021/08/13 03:00:59;;;;;;;5.60;3.75;;;;;;;18.39;100.00;95307.75;10405392;28;20121;-73
2021/08/13 03:06:02;;;;;;;7.25;3.92;;;;;;;18.33;100.00;95307.09;10404558;28;20755;-72
2021/08/13 03:11:05;;;;;;;8.15;4.10;;;;;;;18.41;100.00;95321.88;10404434;28;20033;-72
2021/08/13 03:16:07;;;;;;;6.53;4.07;;;;;;;18.35;100.00;95321.19;10404997;28;20072;-73
2021/08/13 03:21:11;;;;;;;16.45;3.58;;;;;;;18.36;100.00;95322.00;10404407;28;20496;-73
2021/08/13 03:26:13;;;;;;;8.05;4.22;;;;;;;18.39;100.00;95326.81;10404631;28;20053;-73
2021/08/13 03:31:42;;;;;;;6.20;3.78;;;;;;;17.91;100.00;95331.69;10404340;28;20040;-73
2021/08/13 03:36:43;;;;;;;7.67;5.40;;;;;;;17.65;100.00;95327.88;10404430;28;20520;-73
2021/08/13 03:41:43;;;;;;;7.68;4.43;;;;;;;17.50;100.00;95320.81;10404244;28;20767;-72
2021/08/13 03:46:44;;;;;;;14.30;4.77;;;;;;;17.53;100.00;95329.19;10403628;28;20017;-72
2021/08/13 03:51:44;;;;;;;7.63;4.13;;;;;;;17.64;100.00;95320.81;10404227;28;20060;-73
2021/08/13 03:56:44;;;;;;;7.53;4.80;;;;;;;17.59;100.00;95332.59;10403112;28;20060;-72
2021/08/13 04:01:45;;;;;;;7.33;4.40;;;;;;;17.73;100.00;95330.66;10402760;28;20092;-72
2021/08/13 04:06:45;;;;;;;13.00;4.60;;;;;;;17.83;100.00;95332.38;10403201;28;20329;-73
2021/08/13 04:11:45;;;;;;;9.90;4.67;;;;;;;18.01;100.00;95338.03;10403061;28;20267;-72
2021/08/13 04:16:46;;;;;;;6.63;4.20;;;;;;;18.00;100.00;95328.25;10403068;28;20288;-73
2021/08/13 04:21:46;;;;;;;9.57;4.23;;;;;;;18.09;100.00;95334.56;10399863;28;20277;-72
2021/08/13 04:26:47;;;;;;;5.85;3.90;;;;;;;18.19;100.00;95334.34;10370790;28;20026;-72
2021/08/13 04:31:48;;;;;;;6.07;4.70;;;;;;;18.23;100.00;95339.97;10369799;28;20037;-72
2021/08/13 04:36:48;;;;;;;8.80;4.55;;;;;;;18.26;100.00;95348.31;10370055;28;20025;-72
2021/08/13 04:41:48;;;;;;;10.60;4.23;;;;;;;18.24;100.00;95356.00;10368406;28;20045;-72
2021/08/13 04:46:49;;;;;;;11.30;4.25;;;;;;;18.20;100.00;95355.00;10369602;28;20018;-72
2021/08/13 04:51:49;;;;;;;8.17;4.93;;;;;;;18.24;100.00;95355.19;10369328;28;20112;-72
2021/08/13 04:56:49;;;;;;;6.47;4.40;;;;;;;18.47;100.00;95350.56;10369094;28;20050;-74
2021/08/13 05:01:50;;;;;;;10.27;4.10;;;;;;;18.79;97.87;95346.78;10369119;28;20030;-72
2021/08/13 05:06:50;;;;;;;8.47;4.90;;;;;;;19.33;96.09;95348.75;10368691;28;20108;-73
2021/08/13 05:11:50;;;;;;;8.80;3.97;;;;;;;19.90;91.25;95342.53;10367743;28;20116;-72
2021/08/13 05:16:51;;;;;;;9.17;4.33;;;;;;;20.58;83.71;95339.38;10368385;28;20030;-73
2021/08/13 05:21:51;;;;;;;8.60;5.67;;;;;;;21.20;81.00;95344.78;10367441;28;20033;-73
2021/08/13 05:26:52;;;;;;;11.33;3.87;;;;;;;21.85;77.77;95356.41;10367963;28;20604;-73
2021/08/13 05:31:52;;;;;;;8.30;4.10;;;;;;;22.55;70.83;95350.53;10368028;28;20114;-73
2021/08/13 05:36:53;;;;;;;11.10;4.13;;;;;;;23.37;64.84;95357.31;10368037;28;20315;-73
2021/08/13 05:41:53;;;;;;;10.27;4.28;;;;;;;24.26;56.71;95352.34;10367281;28;20101;-73
2021/08/13 05:46:54;;;;;;;16.47;4.67;;;;;;;25.29;52.48;95345.44;10367122;28;20076;-73
2021/08/13 05:51:54;;;;;;;5.70;3.10;;;;;;;26.19;48.71;95338.63;10367183;28;20370;-73
2021/08/13 05:56:54;;;;;;;8.10;3.67;;;;;;;26.88;45.77;95355.47;10366794;28;20071;-73
2021/08/13 06:01:55;;;;;;;6.27;3.17;;;;;;;27.76;43.62;95358.69;10366953;28;20084;-73
2021/08/13 06:06:55;;;;;;;12.02;4.07;;;;;;;28.74;40.29;95356.19;10368495;28;20140;-73
2021/08/13 06:11:56;;;;;;;5.57;3.73;;;;;;;29.58;39.15;95361.50;10367753;28;20033;-73
2021/08/13 06:16:58;;;;;;;7.53;4.17;;;;;;;30.07;38.17;95356.81;10367808;28;20026;-73
2021/08/13 06:21:59;;;;;;;8.25;4.38;;;;;;;30.62;37.24;95353.22;10367493;28;20095;-73
2021/08/13 06:27:00;;;;;;;6.72;3.60;;;;;;;31.48;34.99;95354.72;10366810;28;20099;-73
2021/08/13 06:32:00;;;;;;;10.85;3.53;;;;;;;32.13;33.32;95355.59;10366993;28;20474;-73
2021/08/13 06:37:00;;;;;;;15.03;4.50;;;;;;;32.52;33.20;95357.53;10367092;28;20452;-73
2021/08/13 06:42:01;;;;;;;11.90;4.07;;;;;;;33.12;32.30;95346.63;10366370;28;20432;-73
2021/08/13 06:47:02;;;;;;;10.82;3.67;;;;;;;33.92;30.24;95348.97;10365475;28;20430;-73
2021/08/13 06:52:02;;;;;;;14.63;5.18;;;;;;;34.46;29.61;95342.91;10365831;28;20018;-73
2021/08/13 06:57:03;;;;;;;7.28;3.38;;;;;;;35.18;29.22;95351.28;10365972;28;20528;-74
2021/08/13 07:02:03;;;;;;;8.03;3.40;;;;;;;35.31;29.06;95359.91;10365826;28;20033;-74
2021/08/13 07:07:04;;;;;;;6.53;2.77;;;;;;;34.16;30.06;95361.91;10365402;28;20030;-74
2021/08/13 07:12:04;;;;;;;7.07;2.60;;;;;;;35.20;28.60;95348.06;10365262;28;20895;-74
2021/08/13 07:17:05;;;;;;;8.60;2.78;;;;;;;35.53;27.95;95348.41;10365414;28;20037;-74
2021/08/13 07:22:05;;;;;;;8.77;3.17;;;;;;;35.90;27.66;95346.69;10365667;28;20036;-74
2021/08/13 07:27:05;;;;;;;5.90;2.37;;;;;;;35.95;26.96;95349.00;10365244;28;20276;-74
2021/08/13 07:32:06;;;;;;;9.33;3.30;;;;;;;36.61;25.98;95344.66;10364897;28;20397;-74
2021/08/13 07:37:06;;;;;;;4.73;2.47;;;;;;;37.35;25.66;95350.47;10364788;28;20343;-74
2021/08/13 07:42:07;;;;;;;6.83;2.13;;;;;;;35.84;25.81;95332.41;10364902;28;20034;-74
2021/08/13 07:47:07;;;;;;;3.60;2.63;;;;;;;35.45;27.90;95336.56;10364054;28;20032;-73
2021/08/13 07:52:08;;;;;;;9.67;3.27;;;;;;;37.19;25.90;95331.53;10364219;28;20029;-74
2021/08/13 07:57:08;;;;;;;5.83;2.43;;;;;;;38.42;24.00;95332.31;10363571;28;20042;-74
2021/08/13 08:02:08;;;;;;;7.80;2.43;;;;;;;39.35;23.20;95328.13;10364260;28;20300;-74
2021/08/13 08:07:09;;;;;;;4.13;2.40;;;;;;;39.26;22.79;95335.22;10363943;28;20038;-74
2021/08/13 08:12:09;;;;;;;4.17;1.70;;;;;;;37.37;24.05;95343.19;10364177;28;20116;-74
2021/08/13 08:17:10;;;;;;;4.80;2.47;;;;;;;39.00;23.21;95348.38;10364054;28;20030;-74
2021/08/13 08:22:10;;;;;;;6.50;2.23;;;;;;;38.03;23.24;95357.31;10363750;28;20032;-74
2021/08/13 08:27:11;;;;;;;13.40;3.13;;;;;;;40.13;22.09;95355.06;10363692;28;20072;-74
2021/08/13 08:32:11;;;;;;;5.60;2.50;;;;;;;39.24;22.63;95343.31;10363854;28;20368;-73
2021/08/13 08:37:12;;;;;;;2.73;2.10;;;;;;;40.25;22.68;95340.19;10362577;28;20030;-72
2021/08/13 08:42:15;;;;;;;5.30;2.60;;;;;;;40.96;22.02;95338.94;10363457;28;20033;-72
2021/08/13 08:47:20;;;;;;;4.03;1.95;;;;;;;41.63;20.24;95334.00;10363053;28;20053;-72
2021/08/13 08:52:23;;;;;;;6.22;2.65;;;;;;;41.41;21.08;95327.66;10363507;28;20029;-73
2021/08/13 08:57:28;;;;;;;4.68;2.50;;;;;;;40.82;21.10;95334.59;10363043;28;20046;-73
2021/08/13 09:02:29;;;;;;;3.28;2.40;;;;;;;40.69;21.55;95327.44;10362208;28;20474;-72
2021/08/13 09:07:29;;;;;;;9.93;3.33;;;;;;;41.67;20.99;95329.00;10362854;28;20021;-73
2021/08/13 09:12:32;;;;;;;3.53;2.47;;;;;;;40.12;21.67;95328.13;10367190;28;20554;-73
2021/08/13 09:17:33;;;;;;;5.57;2.33;;;;;;;41.28;21.27;95331.31;10367520;28;20421;-72
2021/08/13 09:22:42;;;;;;;9.82;2.88;;;;;;;41.82;21.14;95322.81;10368800;28;20022;-73
2021/08/13 09:27:47;;;;;;;6.63;2.33;;;;;;;42.29;20.70;95326.56;10368330;28;20034;-73
2021/08/13 09:32:59;;;;;;;5.90;2.10;;;;;;;43.25;19.21;95326.41;10367858;28;20540;-73
2021/08/13 09:38:02;;;;;;;9.43;2.47;;;;;;;43.43;19.21;95327.59;10367826;28;20038;-73
2021/08/13 09:43:02;;;;;;;2.95;2.28;;;;;;;43.01;19.34;95318.56;10368117;28;20033;-73
2021/08/13 09:48:03;;;;;;;6.93;2.50;;;;;;;45.04;18.26;95310.25;10367512;28;20029;-73
2021/08/13 09:53:05;;;;;;;4.38;2.42;;;;;;;45.49;18.18;95315.22;10366995;28;20029;-73
2021/08/13 09:58:08;;;;;;;4.22;2.15;;;;;;;46.16;17.12;95314.66;10366750;28;20045;-73
2021/08/13 10:03:10;;;;;;;4.77;2.60;;;;;;;45.61;17.95;95311.28;10367166;28;20114;-73
2021/08/13 10:08:10;;;;;;;6.53;2.35;;;;;;;46.15;17.26;95308.22;10366409;28;20049;-73
2021/08/13 10:13:11;;;;;;;4.43;2.33;;;;;;;46.05;17.53;95301.88;10365989;28;20097;-73
2021/08/13 10:18:16;;;;;;;4.63;2.70;;;;;;;45.11;18.20;95299.84;10366100;28;20037;-73
2021/08/13 10:23:16;;;;;;;5.68;2.05;;;;;;;45.28;17.79;95305.81;10366070;28;20141;-72
2021/08/13 10:28:16;;;;;;;3.40;2.50;;;;;;;45.92;17.35;95309.94;10365994;28;20168;-73
2021/08/13 10:33:18;;;;;;;5.30;2.20;;;;;;;45.86;17.39;95304.19;10366025;28;20151;-73
2021/08/13 10:38:21;;;;;;;8.00;2.50;;;;;;;45.43;17.99;95305.81;10365559;28;20068;-73
2021/08/13 10:43:32;;;;;;;5.15;2.45;;;;;;;46.03;18.05;95301.59;10365348;28;20561;-73
2021/08/13 10:48:37;;;;;;;5.07;3.47;;;;;;;45.76;17.97;95293.41;10364998;28;20030;-73
2021/08/13 10:53:38;;;;;;;10.95;2.33;;;;;;;46.45;17.08;95295.94;10364788;28;20041;-73
2021/08/13 10:58:41;;;;;;;8.15;2.30;;;;;;;46.80;16.99;95297.91;10364561;28;20065;-73
2021/08/13 11:03:54;;;;;;;2.47;1.97;;;;;;;45.64;17.98;95287.56;10364782;28;20483;-73
2021/08/13 11:08:56;;;;;;;5.63;2.47;;;;;;;46.86;16.82;95287.38;10364350;28;20029;-73
2021/08/13 11:13:56;;;;;;;4.32;2.35;;;;;;;46.32;16.95;95270.72;10364128;28;20763;-72
2021/08/13 11:18:56;;;;;;;2.50;2.27;;;;;;;44.34;18.26;95277.47;10363747;28;20045;-73
2021/08/13 11:23:59;;;;;;;5.13;2.87;;;;;;;40.59;21.43;95268.19;10364396;28;20034;-73
2021/08/13 11:29:33;;;;;;;5.38;3.60;;;;;;;37.85;23.50;95270.78;10363246;28;20068;-73
2021/08/13 11:34:48;;;;;;;6.00;3.38;;;;;;;35.74;25.69;95271.81;10363113;28;20026;-73
2021/08/13 11:39:50;;;;;;;7.35;3.65;;;;;;;34.55;27.04;95271.44;10362242;28;20038;-72
2021/08/13 11:44:51;;;;;;;6.97;3.70;;;;;;;33.98;28.57;95266.44;10362504;28;20054;-72
2021/08/13 11:49:52;;;;;;;4.85;3.65;;;;;;;33.44;28.04;95256.50;10363013;28;20612;-72
2021/08/13 11:54:52;;;;;;;6.78;3.88;;;;;;;32.77;28.93;95267.63;10363018;28;20071;-72
2021/08/13 11:59:53;;;;;;;4.47;3.90;;;;;;;32.34;30.56;95259.44;10362633;28;20040;-72
2021/08/13 12:05:10;;;;;;;4.50;3.60;;;;;;;32.53;31.32;95255.41;10362791;28;20038;-72
2021/08/13 12:10:11;;;;;;;6.28;4.13;;;;;;;31.96;31.01;95243.19;10362676;28;20136;-72
2021/08/13 12:15:13;;;;;;;7.18;3.95;;;;;;;32.02;31.89;95252.72;10362559;28;20153;-72
2021/08/13 12:20:13;;;;;;;5.05;3.78;;;;;;;32.08;31.58;95247.56;10362185;28;20470;-72
2021/08/13 12:25:14;;;;;;;10.17;4.23;;;;;;;32.49;30.24;95241.47;10360996;28;20028;-73
2021/08/13 12:30:23;;;;;;;6.38;3.80;;;;;;;32.57;30.19;95235.88;10360957;28;20041;-72
2021/08/13 12:35:24;;;;;;;7.05;3.78;;;;;;;31.89;30.79;95234.06;10361727;28;20377;-72
2021/08/13 12:40:25;;;;;;;4.72;3.70;;;;;;;31.64;31.24;95232.13;10360439;28;20753;-73
2021/08/13 12:45:25;;;;;;;7.80;3.88;;;;;;;31.67;31.64;95220.22;10364425;28;20034;-73
2021/08/13 12:50:26;;;;;;;5.82;3.17;;;;;;;32.01;31.49;95219.75;10369238;28;20025;-73
2021/08/13 12:55:38;;;;;;;16.60;4.33;;;;;;;31.85;33.10;95214.63;10367490;28;20964;-73
2021/08/13 13:00:38;;;;;;;10.93;4.53;;;;;;;31.65;32.83;95225.41;10368623;28;20386;-72
2021/08/13 13:06:02;;;;;;;8.00;3.83;;;;;;;31.16;33.77;95222.97;10367535;28;20072;-72
2021/08/13 13:11:02;;;;;;;6.45;4.90;;;;;;;31.06;34.61;95211.84;10373967;28;20028;-73
2021/08/13 13:16:04;;;;;;;13.17;4.83;;;;;;;30.99;34.86;95220.91;10367450;28;20026;-73
2021/08/13 13:21:18;;;;;;;8.55;4.68;;;;;;;31.01;35.29;95226.88;10367203;28;20115;-73
2021/08/13 13:26:18;;;;;;;7.93;5.28;;;;;;;30.98;35.45;95230.47;10366623;28;20025;-73
2021/08/13 13:31:22;;;;;;;6.27;4.37;;;;;;;30.84;35.59;95225.66;10366836;28;20026;-73
2021/08/13 13:36:23;;;;;;;8.85;5.47;;;;;;;30.47;36.24;95219.19;10364866;28;20295;-73
2021/08/13 13:41:24;;;;;;;6.93;4.43;;;;;;;30.22;36.53;95218.28;10365364;28;20040;-72
2021/08/13 13:46:24;;;;;;;8.93;4.47;;;;;;;30.09;36.74;95218.63;10365651;28;20362;-73
2021/08/13 13:51:24;;;;;;;7.10;4.70;;;;;;;30.09;36.95;95224.16;10365958;28;20029;-73
2021/08/13 13:56:25;;;;;;;6.40;4.70;;;;;;;29.97;37.12;95225.31;10364918;28;20081;-73
2021/08/13 14:01:25;;;;;;;7.90;4.97;;;;;;;29.99;37.47;95233.22;10365996;28;20029;-73
2021/08/13 14:06:25;;;;;;;17.13;5.17;;;;;;;29.80;37.04;95226.72;10365553;28;20192;-73
2021/08/13 14:11:26;;;;;;;5.33;4.77;;;;;;;29.69;37.02;95222.31;10365012;28;20053;-73
2021/08/13 14:16:26;;;;;;;6.63;5.28;;;;;;;29.26;37.34;95229.13;10365625;28;20532;-72
2021/08/13 14:21:27;;;;;;;10.43;5.35;;;;;;;29.15;37.02;95223.44;10367381;28;20755;-72
2021/08/13 14:26:27;;;;;;;14.13;5.03;;;;;;;29.06;37.08;95222.94;10367130;28;20030;-72
2021/08/13 14:31:28;;;;;;;7.30;5.03;;;;;;;28.98;37.81;95238.72;10366457;28;20030;-72
2021/08/13 14:36:29;;;;;;;6.97;5.38;;;;;;;28.89;38.34;95238.22;10367267;28;20033;-72
2021/08/13 14:41:29;;;;;;;9.73;6.00;;;;;;;28.73;38.45;95245.94;10366514;28;20029;-72
2021/08/13 14:46:30;;;;;;;9.57;5.60;;;;;;;28.71;39.32;95237.25;10366347;28;20028;-72
2021/08/13 14:51:31;;;;;;;9.67;5.30;;;;;;;28.54;41.05;95249.66;10366559;28;20022;-72
2021/08/13 14:56:34;;;;;;;9.32;5.65;;;;;;;28.48;41.45;95246.41;10365951;28;20121;-72
2021/08/13 15:01:35;;;;;;;16.85;5.90;;;;;;;28.47;41.51;95244.84;10366767;28;20108;-72
2021/08/13 15:06:36;;;;;;;6.17;5.07;;;;;;;28.58;42.09;95248.53;10365648;28;20431;-72
2021/08/13 15:11:38;;;;;;;13.90;5.85;;;;;;;28.54;42.53;95244.13;10364484;28;20034;-72
2021/08/13 15:16:40;;;;;;;10.48;5.03;;;;;;;28.48;41.18;95246.41;10365038;28;20032;-72
2021/08/13 15:21:40;;;;;;;6.88;5.45;;;;;;;28.40;40.21;95251.06;10365163;28;20477;-72
2021/08/13 15:26:41;;;;;;;7.47;5.50;;;;;;;28.45;40.43;95245.22;10363510;28;20037;-72
2021/08/13 15:31:42;;;;;;;14.60;5.63;;;;;;;28.27;41.78;95238.66;10363731;28;20276;-72
2021/08/13 15:36:42;;;;;;;7.15;4.85;;;;;;;28.23;41.40;95243.34;10362614;28;20404;-72
2021/08/13 15:41:42;;;;;;;7.30;5.13;;;;;;;28.21;42.22;95249.25;10363201;28;20041;-72
2021/08/13 15:46:43;;;;;;;9.40;4.87;;;;;;;28.14;40.56;95251.91;10377717;28;20079;-72
2021/08/13 15:51:43;;;;;;;9.00;5.60;;;;;;;28.01;40.70;95251.34;10403391;28;20032;-72
2021/08/13 15:56:44;;;;;;;8.73;5.57;;;;;;;27.91;42.06;95252.75;10395967;28;20070;-73
2021/08/13 16:01:44;;;;;;;9.30;5.80;;;;;;;27.84;42.57;95249.91;10362931;28;20026;-72
2021/08/13 16:06:45;;;;;;;9.32;5.68;;;;;;;27.78;42.99;95249.44;10398314;28;20036;-72
2021/08/13 16:11:45;;;;;;;6.68;5.10;;;;;;;27.69;42.75;95257.16;10404536;28;20025;-72
2021/08/13 16:16:47;;;;;;;8.43;5.95;;;;;;;27.67;42.21;95255.94;10403534;28;20029;-72
2021/08/13 16:21:47;;;;;;;7.95;5.10;;;;;;;27.62;43.21;95263.38;10408803;28;20024;-72
2021/08/13 16:26:47;;;;;;;12.18;5.40;;;;;;;27.54;43.78;95264.44;10411378;28;20377;-72
2021/08/13 16:31:48;;;;;;;11.07;5.67;;;;;;;27.48;43.68;95267.84;10411468;28;20396;-72
2021/08/13 16:36:48;;;;;;;10.93;5.50;;;;;;;27.42;45.09;95268.19;10411359;28;20021;-72
2021/08/13 16:41:49;;;;;;;12.35;5.30;;;;;;;27.34;46.72;95283.00;10411843;28;20029;-72
2021/08/13 16:46:49;;;;;;;9.83;6.37;;;;;;;27.30;48.33;95279.38;10410531;28;20369;-72
2021/08/13 16:51:49;;;;;;;8.20;5.53;;;;;;;27.15;51.82;95286.59;10410247;28;20029;-72
2021/08/13 16:56:50;;;;;;;8.20;5.73;;;;;;;26.95;53.51;95285.84;10410520;28;20806;-72
2021/08/13 17:01:50;;;;;;;8.73;5.50;;;;;;;26.93;54.35;95300.03;10409809;28;20756;-72
2021/08/13 17:06:51;;;;;;;8.17;5.43;;;;;;;26.90;55.68;95294.44;10410121;28;20122;-72
2021/08/13 17:11:53;;;;;;;11.70;5.73;;;;;;;26.77;56.70;95291.81;10409019;28;20032;-72
2021/08/13 17:16:54;;;;;;;11.98;5.65;;;;;;;26.75;58.26;95305.19;10407402;28;20295;-72
2021/08/13 17:21:54;;;;;;;12.00;5.40;;;;;;;26.70;59.78;95299.97;10409878;28;20465;-73
2021/08/13 17:26:55;;;;;;;9.43;6.00;;;;;;;26.60;60.50;95306.03;10410442;28;20025;-73
2021/08/13 17:31:55;;;;;;;12.77;6.57;;;;;;;26.64;60.77;95301.41;10408674;28;20025;-73
2021/08/13 17:36:55;;;;;;;9.03;5.30;;;;;;;26.57;61.45;95312.28;10408738;28;20663;-73
2021/08/13 17:41:56;;;;;;;9.73;5.45;;;;;;;26.56;62.30;95316.19;10407757;28;20051;-73
2021/08/13 17:46:56;;;;;;;14.38;5.45;;;;;;;26.48;63.57;95322.72;10407721;28;20040;-73
2021/08/13 17:51:57;;;;;;;15.20;5.87;;;;;;;26.38;65.16;95330.38;10409133;28;20036;-73
2021/08/13 17:56:57;;;;;;;11.37;6.83;;;;;;;26.29;66.57;95334.50;10408773;28;20563;-73
2021/08/13 18:01:58;;;;;;;9.60;5.87;;;;;;;26.24;67.77;95333.63;10406636;28;20116;-74
2021/08/13 18:06:58;;;;;;;12.50;5.37;;;;;;;25.98;71.53;95342.44;10407834;28;20816;-74
2021/08/13 18:11:58;;;;;;;13.13;6.40;;;;;;;25.92;72.12;95347.41;10406601;28;20515;-73
2021/08/13 18:16:59;;;;;;;9.90;5.90;;;;;;;25.83;73.34;95348.75;10407272;28;20026;-73
2021/08/13 18:21:59;;;;;;;9.20;6.17;;;;;;;25.79;74.81;95358.88;10374953;28;20109;-73
2021/08/13 18:27:00;;;;;;;10.48;5.90;;;;;;;25.78;75.30;95362.81;10369553;28;20283;-73
2021/08/13 18:32:01;;;;;;;9.23;6.60;;;;;;;25.58;77.97;95369.03;10366551;28;20025;-73
2021/08/13 18:37:01;;;;;;;12.05;7.10;;;;;;;25.57;76.83;95383.94;10365842;28;20488;-73
2021/08/13 18:42:02;;;;;;;15.52;6.68;;;;;;;25.45;79.21;95380.47;10390858;28;20059;-73
2021/08/13 18:47:02;;;;;;;12.40;7.25;;;;;;;25.44;79.47;95374.16;10407072;28;20492;-73
2021/08/13 18:52:03;;;;;;;15.95;7.63;;;;;;;25.28;79.93;95376.84;10406257;28;20435;-73
2021/08/13 18:57:04;;;;;;;11.00;7.10;;;;;;;25.28;80.93;95379.59;10404285;28;20053;-72
2021/08/13 19:02:05;;;;;;;9.95;6.53;;;;;;;25.23;81.91;95388.91;10403139;28;20025;-75
2021/08/13 19:07:05;;;;;;;13.00;7.55;;;;;;;25.10;85.33;95394.84;10404382;28;20026;-72
2021/08/13 19:12:06;;;;;;;11.20;7.57;;;;;;;24.74;88.27;95392.66;10402884;28;20032;-74
2021/08/13 19:17:06;;;;;;;15.73;7.50;;;;;;;24.62;88.53;95397.41;10404631;28;20314;-73
2021/08/13 19:22:06;;;;;;;15.13;6.80;;;;;;;24.34;90.01;95393.41;10404012;28;20103;-72
2021/08/13 19:27:12;;;;;;;10.83;6.57;;;;;;;24.06;92.44;95402.34;10403301;28;20029;-72
2021/08/13 19:32:16;;;;;;;13.82;7.22;;;;;;;23.96;93.70;95394.59;10362871;28;20025;-75
2021/08/13 19:37:27;;;;;;;10.45;7.50;;;;;;;23.83;95.10;95390.19;10468696;23;20140;-89
2021/08/13 19:42:32;;;;;;;11.98;7.32;;;;;;;23.83;96.82;95395.69;10452843;28;20093;-89
2021/08/13 19:47:33;;;;;;;8.48;6.78;;;;;;;23.80;97.35;95388.13;10452424;28;20454;-90
2021/08/13 19:52:33;;;;;;;13.43;7.60;;;;;;;23.81;93.92;95381.50;10449305;28;20032;-89
2021/08/13 19:57:33;;;;;;;15.07;7.47;;;;;;;23.88;95.47;95382.56;10447022;28;20033;-89
2021/08/13 20:02:34;;;;;;;17.02;7.97;;;;;;;23.88;93.29;95387.25;10447432;28;20021;-91
2021/08/13 20:07:34;;;;;;;11.33;7.17;;;;;;;23.80;94.32;95385.41;10448569;28;20020;-88
2021/08/13 20:12:35;;;;;;;13.45;8.52;;;;;;;23.75;95.51;95378.19;10451476;28;20272;-94
2021/08/13 20:17:35;;;;;;;11.10;7.72;;;;;;;23.53;97.29;95390.41;10454662;28;20145;-93
2021/08/13 20:22:36;;;;;;;13.80;7.63;;;;;;;23.19;99.76;95395.09;10454728;28;20033;-94
2021/08/13 20:27:38;;;;;;;11.88;7.85;;;;;;;23.03;100.00;95392.97;10456023;28;20781;-94
2021/08/13 20:32:39;;;;;;;13.45;8.32;;;;;;;22.81;100.00;95396.06;10454496;28;20136;-93
2021/08/13 20:37:40;;;;;;;10.40;7.43;;;;;;;22.75;100.00;95397.44;10456443;28;20067;-93
2021/08/13 20:42:41;;;;;;;14.23;7.28;;;;;;;22.61;100.00;95401.22;10405283;28;20488;-92
2021/08/13 20:47:41;;;;;;;13.63;7.90;;;;;;;22.46;100.00;95402.63;10423226;28;20031;-92
2021/08/13 20:52:42;;;;;;;17.63;8.75;;;;;;;22.43;100.00;95402.50;10412300;28;20558;-92
2021/08/13 20:57:42;;;;;;;10.75;7.50;;;;;;;22.29;100.00;95403.50;10431296;28;20064;-92
2021/08/13 21:02:43;;;;;;;10.77;7.68;;;;;;;22.33;100.00;95393.53;10440608;28;20029;-92
2021/08/13 21:07:43;;;;;;;14.00;8.27;;;;;;;22.36;100.00;95397.53;10431958;28;20029;-92
2021/08/13 21:12:46;;;;;;;16.17;7.67;;;;;;;22.29;100.00;95394.50;10437118;28;20459;-93
2021/08/13 21:17:47;;;;;;;10.00;7.45;;;;;;;22.25;100.00;95404.50;10459709;28;20286;-91
2021/08/13 21:22:47;;;;;;;9.77;7.28;;;;;;;22.29;100.00;95398.03;10459591;28;20027;-91
2021/08/13 21:27:47;;;;;;;11.93;7.20;;;;;;;22.28;100.00;95401.09;10453423;28;20037;-87
2021/08/13 21:32:48;;;;;;;10.23;7.17;;;;;;;22.34;100.00;95416.22;10465996;28;20040;-88
2021/08/13 21:37:48;;;;;;;11.07;6.97;;;;;;;22.17;100.00;95401.50;10451060;28;20292;-88
2021/08/13 21:42:49;;;;;;;11.80;7.67;;;;;;;22.01;100.00;95397.72;10451307;28;20036;-88
2021/08/13 21:47:51;;;;;;;11.20;6.73;;;;;;;21.71;100.00;95394.94;10453485;28;20301;-87
2021/08/13 21:52:55;;;;;;;7.82;6.25;;;;;;;21.48;100.00;95397.13;10457246;28;20067;-88
2021/08/13 21:57:55;;;;;;;9.30;7.03;;;;;;;21.44;100.00;95390.69;10450534;28;20494;-88
2021/08/13 22:02:55;;;;;;;7.60;5.87;;;;;;;21.54;100.00;95397.78;10451345;28;20036;-89
2021/08/13 22:07:56;;;;;;;13.65;6.55;;;;;;;21.64;100.00;95391.94;10449898;28;20024;-89
2021/08/13 22:13:04;;;;;;;9.63;7.40;;;;;;;21.44;100.00;95382.50;10449613;28;20147;-89
2021/08/13 22:18:12;;;;;;;10.98;7.22;;;;;;;21.27;100.00;95383.34;10450533;28;20280;-89
2021/08/13 22:23:15;;;;;;;;;;;;;;;21.26;100.00;95379.78;10451421;28;20041;-89
2021/08/13 22:28:19;;;;;;;11.25;6.50;;;;;;;21.10;100.00;95386.94;10454291;28;20352;-88
2021/08/13 22:33:19;;;;;;;9.90;6.82;;;;;;;21.08;100.00;95383.69;10462373;28;20043;-87
2021/08/13 22:38:20;;;;;;;9.80;7.07;;;;;;;21.14;100.00;95379.66;10476805;28;20056;-88
2021/08/13 22:43:20;;;;;;;10.70;7.25;;;;;;;21.02;100.00;95379.53;10453096;28;20043;-89
2021/08/13 22:48:20;;;;;;;9.53;6.80;;;;;;;20.56;100.00;95377.13;10445865;28;20024;-88
2021/08/13 22:53:21;;;;;;;8.57;6.80;;;;;;;20.53;100.00;95377.78;10446840;28;20473;-88
2021/08/13 22:58:22;;;;;;;9.15;6.35;;;;;;;20.61;100.00;95376.97;10447570;28;20283;-89
2021/08/13 23:03:22;;;;;;;13.43;7.28;;;;;;;20.61;100.00;95371.50;10444868;28;20039;-89
2021/08/13 23:08:22;;;;;;;11.57;7.23;;;;;;;20.78;100.00;95380.84;10445668;28;20029;-89
2021/08/13 23:13:23;;;;;;;11.27;7.23;;;;;;;20.85;100.00;95378.44;10444741;28;20268;-89
2021/08/13 23:18:23;;;;;;;9.93;6.53;;;;;;;20.85;100.00;95377.63;10446036;28;20116;-89